Decoded Metar for KPZQ (ROGERS CITY in MI, USA) (IATA:PZQ) | Meteo·Mobile Aviation Weather
aviador You're here:

KPZQ Decoded Metar

ROGERS CITY in MI, USA
Report Time2018-12-13 11:15:00
UTC Time2018-12-13 11:22:26
Flight Rules mvfr MVFR
Wind160° at 03 kt
W.Decomp.*RWY 09: 0.7 kt HW 2.9 kt RCW
W.Rank160° ranks 20
Current wind is below 160° avg. (6.6)
Visibility6437 m
Phenomena:Mist
Clouds:Overcast 028 Hf
Expected CloudBase > 400 ft AGL from Temp-Dew spread
Ceiling2,800 ft
Temp01°C (ISA -13)
Dew Point00°C (93% RH)
AAT-2.1°C
QNH1018 hPa
Density Alt-958 ft
Elevation669 ft
Report Wrong Elevation
Raw Report
KPZQ 131115Z AUTO 16003KT 4SM BR OVC028 01/00 A3005 RMK AO2
T00120004=

Extra information for KPZQ:More info

Metar Taf Metar & Taf Last 4 Metars F.Rules Stats Wind Profile Meteogram Temp Stats Airport Information Weather charts Add Link Nearby VenuesMetar ALERT Operation Metar Decoded Social comments

AIRNAV info for KPZQ